Airfield :
LOGIN :

Register | Disclaimer

   EN    FR    IT 

 










Legend :    VFR   Marginal VFR   IFR   Intensive IFR   Very Intensive IFR
Visi :
Ceiling :
>= 8 km
>= 3000ft
5 to 8 km
1000 to 3000 ft
1500m to 5 km
500 to 1000 ft
800 to 1500m
200 to 500 ft
< 800m
< 200 ft
Symbols :   Thunderstorms  Fog  Heavy snow  Heavy precipitations  Wind > 20 kt
SIGMETs :     Misc.  Thunderstorms  Icing  Turbulence  Mountain Waves  Volcanic Ashes







- Airport Elevation : 25 ft
- IATA code : TPS


LICT - Vincenzo Florio Trapani

CURRENT METAR :
  • 220155Z 12007KT 9999 SCT053 15/13 Q1017

EXPIRED METARs :
  • 220055Z 11005KT CAVOK 15/13 Q1017
  • 212355Z 11004KT CAVOK 15/14 Q1017

TAF TAF LICT
Valid from the 22 at 03:00 until the 22 at 12:00 UTC


220200Z 2203/2212 14006KT 9999 SCT030
BECMG 2208/2209 21010KT
No reported NOTAMs for that airfield.
1 SIGMET reported for the Roma FIR (LIRR) :
 
Severe turbulence
LIRR SIGMET 1 VALID 220230/220430 LIIB
LIRR ROMA FIR SEV TURB FCST WI N3856 E01627 - N3850 E01857 - N3728 E01853 - N3720 E01635 - N3749 E01125 - N4014 E01111 - N4135 E01222 - N4128 E01422 - N4112 E01507 - N4006 E01546 - N3856 E01627 FL270/380 STNR NC=



MET'MAP, your aeronautical weather chart ! - Copyright ORBIFLY December 2007 - Disclaimer

ORBIFLY MET'MAP TEAM :

Programming & Development : Alexandra Zaïnal
Concept & Development : Baudouin d'Aumeries
Co-Development & Prog : Marc-Olivier Méhu
Technical & hardware support : Manuel Goepfert

Contact : metmap@orbifly.com




SOURCES & CREDITS :

   NOAA